Time;durP1;ratioP1;P1;durP2;ratioP2;P2;SDS_P1;SDS_P2;PMS_P1;PMS_P2;Temp;Humidity;BMP_temperature;BMP_pressure;BME280_temperature;BME280_humidity;BME280_pressure;Samples;Min_cycle;Max_cycle;Signal;HPM_P1;HPM_P2
2023/12/20 00:00:05;;;;;;;3.80;2.93;;;;;;;1.40;nan;-23854.59;4992746;28;20169;-63
2023/12/20 00:02:31;;;;;;;1.20;1.20;;;;;;;1.14;nan;-23847.31;4993169;28;20169;-67
2023/12/20 00:04:56;;;;;;;3.30;1.80;;;;;;;1.18;nan;-23848.44;4992424;28;20197;-68
2023/12/20 00:07:21;;;;;;;1.77;1.67;;;;;;;1.15;nan;-23847.75;4992458;28;20715;-65
2023/12/20 00:09:47;;;;;;;1.60;1.50;;;;;;;0.98;nan;-23842.72;4992769;28;20188;-67
2023/12/20 00:12:12;;;;;;;1.50;1.40;;;;;;;1.20;nan;-23849.03;4992507;28;20169;-68
2023/12/20 00:14:38;;;;;;;1.80;1.70;;;;;;;1.43;nan;-23855.59;4992624;28;20585;-66
2023/12/20 00:17:03;;;;;;;2.83;2.63;;;;;;;1.39;nan;-23854.44;4992293;28;20177;-66
2023/12/20 00:19:29;;;;;;;2.03;1.60;;;;;;;1.45;nan;-23856.16;4992320;28;20180;-66
2023/12/20 00:21:54;;;;;;;1.50;1.40;;;;;;;1.33;nan;-23852.75;4991912;28;20184;-64
2023/12/20 00:24:20;;;;;;;2.37;2.17;;;;;;;1.35;nan;-23853.31;4992572;28;20279;-63
2023/12/20 00:26:45;;;;;;;1.93;1.83;;;;;;;1.27;nan;-23851.03;4992199;28;20177;-65
2023/12/20 00:29:11;;;;;;;1.60;1.50;;;;;;;1.18;nan;-23848.44;4992222;28;20255;-66
2023/12/20 00:31:36;;;;;;;1.80;1.70;;;;;;;1.14;nan;-23847.31;4990425;28;20644;-66
2023/12/20 00:34:01;;;;;;;2.80;2.30;;;;;;;0.84;nan;-23839.00;4992125;28;20180;-66
2023/12/20 00:36:27;;;;;;;1.93;1.80;;;;;;;1.00;nan;-23843.31;4991832;28;20662;-62
2023/12/20 00:38:52;;;;;;;2.33;2.17;;;;;;;0.94;nan;-23841.72;4990712;28;20177;-65
2023/12/20 00:41:18;;;;;;;2.03;1.93;;;;;;;0.83;nan;-23838.59;4991853;28;20617;-65
2023/12/20 00:43:44;;;;;;;1.70;1.60;;;;;;;0.57;nan;-23831.28;4991947;28;20204;-65
2023/12/20 00:46:09;;;;;;;2.07;1.97;;;;;;;0.66;nan;-23833.84;4991987;28;20180;-65
2023/12/20 00:48:35;;;;;;;1.37;1.37;;;;;;;0.45;nan;-23827.84;4992074;28;20245;-64
2023/12/20 00:51:00;;;;;;;1.10;1.10;;;;;;;0.68;nan;-23834.44;4991670;28;20534;-65
2023/12/20 00:53:25;;;;;;;1.60;1.50;;;;;;;0.44;nan;-23827.56;4991928;28;20204;-63
2023/12/20 00:55:51;;;;;;;2.90;2.43;;;;;;;0.63;nan;-23832.84;4991847;28;20237;-63
2023/12/20 00:58:17;;;;;;;2.10;2.00;;;;;;;0.52;nan;-23829.72;4828411;28;21095;-65
2023/12/20 01:00:42;;;;;;;1.73;1.40;;;;;;;0.74;nan;-23836.16;4782863;28;20195;-65
2023/12/20 01:03:08;;;;;;;1.80;1.70;;;;;;;0.73;nan;-23835.88;4930540;28;20271;-65
2023/12/20 01:05:33;;;;;;;4.30;2.17;;;;;;;0.45;nan;-23827.84;4992134;28;20199;-65
2023/12/20 01:07:59;;;;;;;2.13;1.93;;;;;;;0.64;nan;-23833.28;4992430;28;20176;-65
2023/12/20 01:10:28;;;;;;;1.83;1.73;;;;;;;0.64;nan;-23833.16;4991297;28;20242;-65
2023/12/20 01:12:53;;;;;;;1.20;1.20;;;;;;;0.80;nan;-23837.72;4991071;28;20255;-69
2023/12/20 01:15:18;;;;;;;2.20;2.00;;;;;;;0.72;nan;-23835.44;4992460;28;20616;-64
2023/12/20 01:17:44;;;;;;;1.80;1.70;;;;;;;0.80;nan;-23837.72;4996041;28;20715;-63
2023/12/20 01:20:09;;;;;;;2.53;2.33;;;;;;;0.75;nan;-23836.44;4996403;28;20182;-63
2023/12/20 01:22:35;;;;;;;1.90;1.80;;;;;;;0.58;nan;-23831.56;4928382;28;20180;-65
2023/12/20 01:25:02;;;;;;;1.80;1.70;;;;;;;0.64;nan;-23833.28;4451848;28;21071;-65
2023/12/20 01:27:28;;;;;;;1.97;1.87;;;;;;;0.74;nan;-23836.16;4445400;28;21407;-69
2023/12/20 01:29:54;;;;;;;1.60;1.50;;;;;;;0.62;nan;-23832.56;4895800;28;20267;-65
2023/12/20 01:32:19;;;;;;;1.70;1.60;;;;;;;0.40;nan;-23826.41;4994930;28;20175;-63
2023/12/20 01:34:46;;;;;;;3.33;2.23;;;;;;;0.28;nan;-23823.13;4996179;28;20298;-64
2023/12/20 01:37:11;;;;;;;1.70;1.60;;;;;;;0.43;nan;-23827.28;4996032;28;20164;-66
2023/12/20 01:39:37;;;;;;;2.20;2.07;;;;;;;0.43;nan;-23827.28;4995906;28;20712;-65
2023/12/20 01:42:02;;;;;;;2.97;2.70;;;;;;;0.07;nan;-23816.97;4996543;28;20186;-63
2023/12/20 01:44:27;;;;;;;1.97;1.87;;;;;;;0.36;nan;-23825.28;4996710;28;20628;-64
2023/12/20 01:46:53;;;;;;;3.90;2.67;;;;;;;0.18;nan;-23820.25;4995583;28;20179;-66
2023/12/20 01:49:19;;;;;;;1.67;1.57;;;;;;;0.07;nan;-23816.97;4995208;28;20626;-65
2023/12/20 01:51:46;;;;;;;1.20;1.20;;;;;;;0.16;nan;-23819.69;4995542;28;20231;-65
2023/12/20 01:54:12;;;;;;;1.97;1.83;;;;;;;-0.12;nan;-23811.81;4995189;28;20226;-65
2023/12/20 01:56:38;;;;;;;2.33;2.17;;;;;;;-0.11;nan;-23811.97;4995114;28;20275;-66
2023/12/20 01:59:04;;;;;;;2.83;2.37;;;;;;;0.08;nan;-23817.25;4995110;28;20179;-65
2023/12/20 02:01:30;;;;;;;1.43;1.37;;;;;;;0.13;nan;-23818.84;4994837;28;20290;-64
2023/12/20 02:03:56;;;;;;;1.20;1.20;;;;;;;0.14;nan;-23819.13;4995631;28;20274;-65
2023/12/20 02:06:23;;;;;;;1.40;1.30;;;;;;;0.10;nan;-23817.97;4994931;28;20186;-65
2023/12/20 02:08:50;;;;;;;1.77;1.67;;;;;;;-0.10;nan;-23812.38;4995092;28;20191;-64
2023/12/20 02:11:16;;;;;;;1.93;1.83;;;;;;;0.05;nan;-23816.41;4994836;28;20176;-63
2023/12/20 02:13:41;;;;;;;2.53;2.33;;;;;;;0.05;nan;-23816.53;4995121;28;20191;-65
2023/12/20 02:16:07;;;;;;;1.70;1.60;;;;;;;-0.15;nan;-23810.97;4995022;28;20665;-65
2023/12/20 02:18:33;;;;;;;1.43;1.40;;;;;;;-0.05;nan;-23813.69;4994828;28;20596;-65
2023/12/20 02:20:58;;;;;;;1.90;1.80;;;;;;;0.06;nan;-23816.81;4995079;28;20180;-66
2023/12/20 02:23:23;;;;;;;1.23;1.23;;;;;;;-0.15;nan;-23810.97;4994657;28;20204;-64
2023/12/20 02:25:49;;;;;;;1.83;1.73;;;;;;;-0.36;nan;-23804.94;4994713;28;20259;-66
2023/12/20 02:28:15;;;;;;;2.57;2.37;;;;;;;-0.02;nan;-23814.69;4994442;28;20265;-65
2023/12/20 02:30:40;;;;;;;1.63;1.53;;;;;;;0.05;nan;-23816.53;4994380;28;20218;-66
2023/12/20 02:33:11;;;;;;;1.50;1.40;;;;;;;-0.17;nan;-23810.38;4994409;28;20193;-65
2023/12/20 02:35:36;;;;;;;3.87;1.60;;;;;;;-0.21;nan;-23809.09;4990892;28;20546;-67
2023/12/20 02:38:02;;;;;;;1.50;1.40;;;;;;;-0.07;nan;-23813.09;4988024;28;20177;-66
2023/12/20 02:40:27;;;;;;;1.70;1.60;;;;;;;-0.07;nan;-23813.25;4989345;28;20176;-63
2023/12/20 02:42:53;;;;;;;1.70;1.60;;;;;;;-0.14;nan;-23811.25;4987320;28;20496;-64
2023/12/20 02:45:18;;;;;;;1.77;1.67;;;;;;;-0.04;nan;-23814.09;4992838;28;20238;-65
2023/12/20 02:47:43;;;;;;;1.63;1.53;;;;;;;-0.07;nan;-23813.09;4993870;28;20313;-68
2023/12/20 02:50:09;;;;;;;4.90;2.00;;;;;;;-0.24;nan;-23808.22;4992590;28;20183;-66
2023/12/20 02:52:34;;;;;;;1.43;1.37;;;;;;;-0.04;nan;-23814.09;4993806;28;20639;-64
2023/12/20 02:55:00;;;;;;;1.30;1.30;;;;;;;-0.13;nan;-23811.53;4994128;28;20169;-64
2023/12/20 02:57:25;;;;;;;1.37;1.37;;;;;;;-0.26;nan;-23807.81;4993989;28;20618;-64
2023/12/20 02:59:50;;;;;;;4.63;1.77;;;;;;;-0.08;nan;-23812.81;4993499;28;20257;-67
2023/12/20 03:02:16;;;;;;;1.10;1.10;;;;;;;-0.10;nan;-23812.38;4993217;28;20202;-66
2023/12/20 03:04:41;;;;;;;3.27;2.10;;;;;;;-0.07;nan;-23813.09;4993886;28;20285;-65
2023/12/20 03:07:07;;;;;;;1.30;1.30;;;;;;;-0.07;nan;-23813.09;4992654;28;20232;-66
2023/12/20 03:09:32;;;;;;;1.20;1.20;;;;;;;-0.31;nan;-23806.38;4993398;28;20215;-66
2023/12/20 03:11:57;;;;;;;2.30;1.53;;;;;;;-0.31;nan;-23806.22;4993666;28;20649;-66
2023/12/20 03:14:23;;;;;;;2.77;2.57;;;;;;;-0.10;nan;-23812.38;4993718;28;20182;-66
2023/12/20 03:16:51;;;;;;;3.93;1.77;;;;;;;-0.26;nan;-23807.81;4992763;28;20237;-64
2023/12/20 03:19:18;;;;;;;1.53;1.43;;;;;;;-0.23;nan;-23808.66;4993950;28;20188;-64
2023/12/20 03:21:44;;;;;;;1.60;1.50;;;;;;;-0.24;nan;-23808.38;4993751;28;20192;-65
2023/12/20 03:24:09;;;;;;;1.70;1.60;;;;;;;-0.07;nan;-23813.09;4993755;28;20193;-67
2023/12/20 03:26:34;;;;;;;1.90;1.80;;;;;;;-0.03;nan;-23814.38;4993973;28;20546;-66
2023/12/20 03:29:00;;;;;;;1.40;1.40;;;;;;;-0.08;nan;-23812.97;4994430;28;20171;-67
2023/12/20 03:31:25;;;;;;;3.90;2.40;;;;;;;-0.17;nan;-23810.38;4994389;28;20236;-67
2023/12/20 03:33:52;;;;;;;1.50;1.40;;;;;;;-0.11;nan;-23811.97;4993504;28;20213;-64
2023/12/20 03:36:17;;;;;;;2.10;1.90;;;;;;;-0.13;nan;-23811.38;4994041;28;20207;-64
2023/12/20 03:38:42;;;;;;;1.70;1.60;;;;;;;-0.15;nan;-23810.97;4993413;28;20496;-65
2023/12/20 03:41:08;;;;;;;2.40;2.20;;;;;;;-0.15;nan;-23810.97;4993896;28;20184;-63
2023/12/20 03:43:33;;;;;;;1.63;1.53;;;;;;;-0.37;nan;-23804.50;4993726;28;20212;-65
2023/12/20 03:45:59;;;;;;;1.77;1.67;;;;;;;-0.26;nan;-23807.66;4992333;28;20320;-67
2023/12/20 03:48:25;;;;;;;2.90;2.13;;;;;;;-0.13;nan;-23811.38;4994113;28;20158;-64
2023/12/20 03:50:50;;;;;;;1.73;1.47;;;;;;;-0.16;nan;-23810.66;4994058;28;20620;-63
2023/12/20 03:53:16;;;;;;;1.67;1.57;;;;;;;-0.29;nan;-23806.94;4994013;28;20181;-63
2023/12/20 03:55:41;;;;;;;2.97;1.97;;;;;;;-0.36;nan;-23804.78;4993329;28;20259;-66
2023/12/20 03:58:07;;;;;;;2.13;2.03;;;;;;;-0.49;nan;-23801.34;4993009;28;20178;-64
2023/12/20 04:00:32;;;;;;;1.67;1.57;;;;;;;-0.48;nan;-23801.66;4991825;28;20189;-65
2023/12/20 04:02:58;;;;;;;1.33;1.27;;;;;;;-0.39;nan;-23803.94;4993313;28;20185;-67
2023/12/20 04:05:23;;;;;;;1.30;1.30;;;;;;;-0.29;nan;-23806.81;4992768;28;20252;-66
2023/12/20 04:07:50;;;;;;;2.03;1.93;;;;;;;-0.37;nan;-23804.50;4992787;28;20209;-65
2023/12/20 04:10:15;;;;;;;1.57;1.47;;;;;;;-0.33;nan;-23805.81;4992436;28;20190;-64
2023/12/20 04:12:41;;;;;;;1.40;1.30;;;;;;;-0.30;nan;-23806.66;4992736;28;20178;-64
2023/12/20 04:15:09;;;;;;;1.53;1.43;;;;;;;-0.57;nan;-23798.91;4992523;28;20194;-64
2023/12/20 04:17:35;;;;;;;2.23;1.80;;;;;;;-0.39;nan;-23803.94;4992870;28;20169;-66
2023/12/20 04:20:01;;;;;;;1.47;1.37;;;;;;;-0.52;nan;-23800.34;4992483;28;20188;-66
2023/12/20 04:22:27;;;;;;;3.33;2.33;;;;;;;-0.48;nan;-23801.50;4992545;28;20177;-64
2023/12/20 04:24:52;;;;;;;1.97;1.87;;;;;;;-0.43;nan;-23802.94;4986026;28;20218;-66
2023/12/20 04:27:18;;;;;;;1.77;1.67;;;;;;;-0.70;nan;-23795.34;4991658;28;20681;-64
2023/12/20 04:29:43;;;;;;;1.83;1.73;;;;;;;-0.63;nan;-23797.19;4991941;28;20169;-67
2023/12/20 04:32:08;;;;;;;1.67;1.57;;;;;;;-0.62;nan;-23797.63;4992940;28;20721;-65
2023/12/20 04:34:34;;;;;;;2.60;2.40;;;;;;;-0.69;nan;-23795.47;4992220;28;20248;-65
2023/12/20 04:37:01;;;;;;;2.10;2.00;;;;;;;-0.51;nan;-23800.63;4991951;28;20179;-68
2023/12/20 04:39:26;;;;;;;1.70;1.60;;;;;;;-0.71;nan;-23795.06;4992175;28;20178;-65
2023/12/20 04:41:52;;;;;;;1.77;1.67;;;;;;;-0.49;nan;-23801.34;4992381;28;20202;-66
2023/12/20 04:44:17;;;;;;;1.90;1.80;;;;;;;-0.48;nan;-23801.50;4991162;28;20209;-65
2023/12/20 04:46:43;;;;;;;2.37;2.17;;;;;;;-0.37;nan;-23804.66;4984562;28;20181;-68
2023/12/20 04:49:08;;;;;;;1.63;1.53;;;;;;;-0.58;nan;-23798.63;4986423;28;20193;-64
2023/12/20 04:51:34;;;;;;;1.87;1.73;;;;;;;-0.58;nan;-23798.78;4989522;28;20192;-66
2023/12/20 04:54:00;;;;;;;1.93;1.83;;;;;;;-0.80;nan;-23792.31;4991941;28;20242;-66
2023/12/20 04:56:26;;;;;;;1.63;1.53;;;;;;;-0.63;nan;-23797.19;4991546;28;20644;-67
2023/12/20 04:58:51;;;;;;;1.73;1.63;;;;;;;-0.96;nan;-23787.88;4991657;28;20212;-66
2023/12/20 05:01:17;;;;;;;1.83;1.73;;;;;;;-0.69;nan;-23795.63;5006521;28;20649;-67
2023/12/20 05:03:42;;;;;;;1.70;1.60;;;;;;;-0.85;nan;-23790.91;4992122;28;20232;-65
2023/12/20 05:06:08;;;;;;;1.83;1.57;;;;;;;-0.71;nan;-23795.06;4990853;28;20182;-64
2023/12/20 05:08:33;;;;;;;3.77;2.50;;;;;;;-0.62;nan;-23797.63;4991845;28;20182;-65
2023/12/20 05:10:59;;;;;;;1.80;1.70;;;;;;;-0.66;nan;-23796.34;4992724;28;20166;-64
2023/12/20 05:13:24;;;;;;;1.50;1.40;;;;;;;-0.71;nan;-23794.91;4992401;28;20171;-68
2023/12/20 05:15:50;;;;;;;1.83;1.73;;;;;;;-0.73;nan;-23794.34;4991416;28;20265;-66
2023/12/20 05:18:16;;;;;;;1.90;1.80;;;;;;;-0.92;nan;-23789.16;4991848;28;20178;-64
2023/12/20 05:20:41;;;;;;;2.13;1.93;;;;;;;-0.74;nan;-23794.19;4991784;28;20246;-66
2023/12/20 05:23:07;;;;;;;1.53;1.43;;;;;;;-0.91;nan;-23789.47;4992777;28;20173;-65
2023/12/20 05:25:32;;;;;;;1.97;1.83;;;;;;;-0.94;nan;-23788.59;4991170;28;20214;-65
2023/12/20 05:27:58;;;;;;;5.63;2.60;;;;;;;-0.75;nan;-23793.75;4991273;28;20242;-66
2023/12/20 05:30:23;;;;;;;1.53;1.43;;;;;;;-0.82;nan;-23791.75;4990584;28;20226;-65
2023/12/20 05:32:48;;;;;;;1.80;1.70;;;;;;;-0.81;nan;-23792.19;4991401;28;20260;-66
2023/12/20 05:35:15;;;;;;;1.73;1.63;;;;;;;-1.11;nan;-23783.59;4991527;28;20678;-64
2023/12/20 05:37:41;;;;;;;3.23;1.97;;;;;;;-0.90;nan;-23789.75;4991306;28;20557;-68
2023/12/20 05:40:10;;;;;;;1.50;1.40;;;;;;;-0.82;nan;-23791.91;4991278;28;20181;-65
2023/12/20 05:42:35;;;;;;;4.20;2.80;;;;;;;-0.97;nan;-23787.59;4991099;28;20215;-69
2023/12/20 05:45:01;;;;;;;2.80;2.07;;;;;;;-0.83;nan;-23791.59;4991302;28;20595;-67
2023/12/20 05:47:26;;;;;;;1.60;1.50;;;;;;;-0.82;nan;-23791.75;4991165;28;20176;-63
2023/12/20 05:49:51;;;;;;;6.27;3.07;;;;;;;-0.84;nan;-23791.19;4991608;28;20251;-66
2023/12/20 05:52:17;;;;;;;1.43;1.40;;;;;;;-0.73;nan;-23794.34;4991335;28;20263;-65
2023/12/20 05:54:42;;;;;;;1.77;1.67;;;;;;;-0.76;nan;-23793.63;4989192;28;20235;-65
2023/12/20 05:57:07;;;;;;;2.70;2.27;;;;;;;-0.81;nan;-23792.19;4991230;28;20205;-66
2023/12/20 05:59:33;;;;;;;1.97;1.77;;;;;;;-1.10;nan;-23784.00;4990507;28;20200;-69
2023/12/20 06:01:58;;;;;;;1.70;1.60;;;;;;;-1.01;nan;-23786.59;4991679;28;20217;-66
2023/12/20 06:04:24;;;;;;;1.93;1.83;;;;;;;-0.81;nan;-23792.19;4994873;28;20196;-69
2023/12/20 06:06:49;;;;;;;2.70;2.50;;;;;;;-0.63;nan;-23797.34;4995089;28;20187;-68
2023/12/20 06:09:15;;;;;;;4.20;2.37;;;;;;;-0.63;nan;-23797.19;4993565;28;20243;-66
2023/12/20 06:11:40;;;;;;;3.23;2.13;;;;;;;-0.72;nan;-23794.63;4994166;28;20179;-66
2023/12/20 06:14:06;;;;;;;1.80;1.70;;;;;;;-0.70;nan;-23795.34;4993674;28;20185;-63
2023/12/20 06:16:31;;;;;;;2.10;2.00;;;;;;;-0.54;nan;-23799.78;4994324;28;20634;-66
2023/12/20 06:18:57;;;;;;;1.67;1.57;;;;;;;-0.39;nan;-23804.06;4993880;28;20618;-64
2023/12/20 06:21:22;;;;;;;1.90;1.80;;;;;;;-0.58;nan;-23798.63;4993520;28;20183;-64
2023/12/20 06:23:47;;;;;;;2.00;1.90;;;;;;;-0.34;nan;-23805.38;4993580;28;20224;-64
2023/12/20 06:26:13;;;;;;;3.07;2.87;;;;;;;-0.52;nan;-23800.34;4993442;28;20241;-65
2023/12/20 06:28:38;;;;;;;2.20;2.00;;;;;;;-0.44;nan;-23802.66;4992982;28;20720;-65
2023/12/20 06:31:04;;;;;;;1.83;1.73;;;;;;;-0.15;nan;-23810.81;4993940;28;20319;-63
2023/12/20 06:33:30;;;;;;;1.70;1.60;;;;;;;-0.02;nan;-23814.69;4994017;28;20187;-64
2023/12/20 06:35:56;;;;;;;2.90;2.70;;;;;;;-0.02;nan;-23814.69;4993657;28;20551;-68
2023/12/20 06:38:22;;;;;;;1.90;1.80;;;;;;;0.12;nan;-23818.53;4993676;28;20256;-66
2023/12/20 06:40:47;;;;;;;2.33;2.13;;;;;;;-0.04;nan;-23813.97;4993768;28;20669;-66
2023/12/20 06:43:13;;;;;;;2.83;1.90;;;;;;;0.14;nan;-23818.97;4993904;28;20226;-65
2023/12/20 06:45:39;;;;;;;1.70;1.60;;;;;;;0.34;nan;-23824.69;4993897;28;20211;-64
2023/12/20 06:48:05;;;;;;;1.73;1.63;;;;;;;0.19;nan;-23820.53;4993827;28;20768;-66
2023/12/20 06:50:30;;;;;;;2.20;2.10;;;;;;;0.48;nan;-23828.56;4993595;28;20694;-65
2023/12/20 06:52:56;;;;;;;2.27;2.17;;;;;;;0.47;nan;-23828.41;4993593;28;20184;-66
2023/12/20 06:55:22;;;;;;;2.67;2.47;;;;;;;0.63;nan;-23833.00;4993228;28;20184;-62
2023/12/20 06:57:48;;;;;;;2.20;2.10;;;;;;;0.51;nan;-23829.44;4992298;28;20173;-66
2023/12/20 07:00:15;;;;;;;2.60;2.40;;;;;;;0.76;nan;-23836.72;4993624;28;20163;-67
2023/12/20 07:02:41;;;;;;;3.27;1.70;;;;;;;0.73;nan;-23835.72;4993403;28;20240;-65
2023/12/20 07:05:06;;;;;;;1.67;1.57;;;;;;;0.79;nan;-23837.44;4992982;28;20671;-65
2023/12/20 07:07:32;;;;;;;2.30;2.10;;;;;;;0.87;nan;-23839.88;4993344;28;20207;-63
2023/12/20 07:09:57;;;;;;;2.33;2.13;;;;;;;1.11;nan;-23846.59;4993211;28;20648;-64
2023/12/20 07:12:23;;;;;;;1.97;1.87;;;;;;;1.07;nan;-23845.44;4993411;28;20259;-67
2023/12/20 07:14:48;;;;;;;1.73;1.63;;;;;;;1.14;nan;-23847.44;4992791;28;20165;-65
2023/12/20 07:17:15;;;;;;;6.10;3.20;;;;;;;1.18;nan;-23848.44;4993376;28;20180;-63
2023/12/20 07:19:42;;;;;;;2.10;1.90;;;;;;;1.43;nan;-23855.59;4993400;28;20176;-64
2023/12/20 07:22:07;;;;;;;3.63;2.03;;;;;;;1.45;nan;-23856.16;4992105;28;20172;-66
2023/12/20 07:24:33;;;;;;;2.50;2.27;;;;;;;1.48;nan;-23857.03;4992935;28;20197;-65
2023/12/20 07:27:02;;;;;;;2.13;1.77;;;;;;;1.71;nan;-23863.59;4992437;28;20209;-65
2023/12/20 07:29:27;;;;;;;5.30;2.17;;;;;;;1.83;nan;-23866.75;4992621;28;20649;-67
2023/12/20 07:31:53;;;;;;;2.17;1.93;;;;;;;1.98;nan;-23871.19;4992548;28;20223;-67
2023/12/20 07:34:22;;;;;;;2.33;2.13;;;;;;;2.26;nan;-23879.03;4992115;28;20184;-66
2023/12/20 07:36:47;;;;;;;2.60;2.40;;;;;;;2.19;nan;-23877.16;4992988;28;20180;-67
2023/12/20 07:39:14;;;;;;;2.63;2.17;;;;;;;2.20;nan;-23877.47;4992995;28;20165;-64
2023/12/20 07:41:40;;;;;;;1.97;1.77;;;;;;;2.62;nan;-23889.31;4991493;28;20553;-64
2023/12/20 07:44:06;;;;;;;3.03;2.70;;;;;;;2.73;nan;-23892.16;4993262;28;20193;-67
2023/12/20 07:46:32;;;;;;;3.90;3.10;;;;;;;2.80;nan;-23894.16;4992766;28;20221;-65
2023/12/20 07:48:57;;;;;;;5.97;2.37;;;;;;;2.81;nan;-23894.44;4992853;28;20617;-67
2023/12/20 07:51:23;;;;;;;2.30;2.20;;;;;;;3.04;nan;-23901.00;4992779;28;20175;-65
2023/12/20 07:53:48;;;;;;;3.10;2.30;;;;;;;3.07;nan;-23900.00;4992629;28;20172;-64
2023/12/20 07:56:18;;;;;;;2.30;2.10;;;;;;;3.08;nan;-23900.44;5007640;28;20220;-66
2023/12/20 07:58:45;;;;;;;1.87;1.77;;;;;;;3.33;nan;-23907.28;4993033;28;20171;-68
2023/12/20 08:01:11;;;;;;;3.00;2.80;;;;;;;3.44;nan;-23910.56;4992680;28;20183;-64
2023/12/20 08:03:37;;;;;;;3.20;1.97;;;;;;;3.52;nan;-23282.81;4992375;28;20176;-64
2023/12/20 08:06:03;;;;;;;1.83;1.73;;;;;;;3.35;nan;-22963.19;4992383;28;20208;-64
2023/12/20 08:08:29;;;;;;;3.87;2.83;;;;;;;3.39;nan;-22649.22;4989566;28;20610;-68
2023/12/20 08:10:54;;;;;;;3.30;3.00;;;;;;;3.62;nan;-22655.03;4987837;28;20212;-63
2023/12/20 08:13:19;;;;;;;2.87;2.53;;;;;;;3.64;nan;-23285.84;4998653;28;20653;-66
2023/12/20 08:15:45;;;;;;;1.77;1.67;;;;;;;3.57;nan;-23599.09;4982971;28;20268;-67
2023/12/20 08:18:11;;;;;;;2.50;1.90;;;;;;;3.95;nan;-23609.75;4977063;28;20196;-65
2023/12/20 08:20:36;;;;;;;1.60;1.50;;;;;;;4.10;nan;-22352.19;4987063;28;20636;-62
2023/12/20 08:23:01;;;;;;;2.60;2.40;;;;;;;4.19;nan;-22039.13;4984848;28;20292;-66
2023/12/20 08:25:28;;;;;;;1.57;1.47;;;;;;;4.33;nan;-22042.56;4984765;28;20291;-67
2023/12/20 08:27:53;;;;;;;4.93;2.17;;;;;;;4.21;nan;-22670.50;4989357;28;20329;-69
2023/12/20 08:30:21;;;;;;;2.33;2.13;;;;;;;4.62;nan;-22996.97;4985575;28;20229;-70
2023/12/20 08:32:48;;;;;;;2.67;2.27;;;;;;;4.96;nan;-21742.47;4982221;28;20189;-64
2023/12/20 08:35:13;;;;;;;1.93;1.83;;;;;;;5.17;nan;-20483.25;4988167;28;20621;-64
2023/12/20 08:37:38;;;;;;;4.57;2.43;;;;;;;4.97;nan;-18897.91;4987373;28;20204;-64
2023/12/20 08:40:05;;;;;;;3.07;2.83;;;;;;;5.03;nan;-20163.97;4987084;28;20280;-69
2023/12/20 08:42:31;;;;;;;1.80;1.70;;;;;;;5.19;nan;-17953.19;4983445;28;20327;-66
2023/12/20 08:44:58;;;;;;;3.80;2.53;;;;;;;5.59;nan;-18910.28;4973609;28;20694;-65
2023/12/20 08:47:24;;;;;;;2.07;1.97;;;;;;;5.45;nan;-19223.91;4992069;28;20184;-69
2023/12/20 08:49:49;;;;;;;2.43;2.23;;;;;;;5.46;nan;-19540.53;4991732;28;20263;-67
2023/12/20 08:52:15;;;;;;;1.93;1.83;;;;;;;5.48;nan;-18591.56;4991885;28;20224;-68
2023/12/20 08:54:40;;;;;;;1.77;1.63;;;;;;;5.33;nan;-19221.63;4991943;28;20177;-65
2023/12/20 08:57:06;;;;;;;4.67;2.67;;;;;;;5.53;nan;-18909.06;4991919;28;20236;-67
2023/12/20 08:59:32;;;;;;;2.33;2.17;;;;;;;5.21;nan;-19535.47;4991827;28;20181;-65
2023/12/20 09:01:57;;;;;;;2.83;2.57;;;;;;;5.39;nan;-19855.53;4991905;28;20179;-66
2023/12/20 09:04:23;;;;;;;1.87;1.77;;;;;;;5.52;nan;-19858.22;4991574;28;20287;-66
2023/12/20 09:06:48;;;;;;;2.80;2.60;;;;;;;5.95;nan;-19234.13;4991359;28;20180;-68
2023/12/20 09:09:14;;;;;;;1.67;1.57;;;;;;;6.44;nan;-17976.06;5023191;28;20258;-68
2023/12/20 09:11:40;;;;;;;2.57;2.37;;;;;;;6.78;nan;-14490.78;4992306;28;20311;-66
2023/12/20 09:14:06;;;;;;;1.63;1.53;;;;;;;7.00;nan;-11950.94;4991689;28;20184;-67
2023/12/20 09:16:31;;;;;;;2.47;2.27;;;;;;;7.46;nan;-8134.31;4991922;28;20177;-67
2023/12/20 09:18:57;;;;;;;4.27;2.50;;;;;;;7.48;nan;-1756.75;4990606;28;20600;-66
2023/12/20 09:21:23;;;;;;;2.30;2.20;;;;;;;7.40;nan;-799.81;4992328;28;20511;-67
2023/12/20 09:23:48;;;;;;;4.13;2.03;;;;;;;7.42;nan;797.03;4993242;28;20637;-66
2023/12/20 09:26:13;;;;;;;1.63;1.53;;;;;;;7.26;nan;1753.22;4992066;28;20663;-65
2023/12/20 09:28:40;;;;;;;2.60;2.40;;;;;;;7.37;nan;1115.81;4991622;28;20180;-66
2023/12/20 09:31:06;;;;;;;1.97;1.83;;;;;;;7.42;nan;158.28;4991939;28;20695;-66
2023/12/20 09:33:32;;;;;;;2.40;2.20;;;;;;;7.48;nan;-479.72;4991653;28;20232;-66
2023/12/20 09:35:58;;;;;;;2.43;2.13;;;;;;;7.84;nan;802.31;4991154;28;20548;-67
2023/12/20 09:38:23;;;;;;;4.45;2.42;;;;;;;7.98;nan;2402.97;4995205;28;20173;-65
2023/12/20 09:40:49;;;;;;;2.28;2.15;;;;;;;7.98;nan;3362.69;4995354;28;20219;-67
2023/12/20 09:43:18;;;;;;;2.70;2.43;;;;;;;7.86;nan;3360.59;4995320;28;20308;-65
2023/12/20 09:45:46;;;;;;;2.17;1.97;;;;;;;8.07;nan;6886.00;4995242;28;20204;-67
2023/12/20 09:48:14;;;;;;;2.25;2.10;;;;;;;8.19;nan;10735.69;4995319;28;20165;-65
2023/12/20 09:50:40;;;;;;;2.35;2.15;;;;;;;8.23;nan;13946.56;4994983;28;20180;-67
2023/12/20 09:53:09;;;;;;;1.90;1.80;;;;;;;8.20;nan;13945.38;4991559;28;20573;-66
2023/12/20 09:55:35;;;;;;;2.78;2.42;;;;;;;8.25;nan;12662.84;4994912;28;20200;-66
2023/12/20 09:58:01;;;;;;;2.35;2.13;;;;;;;8.16;nan;12660.13;4995233;28;20211;-67
2023/12/20 10:00:27;;;;;;;2.17;1.98;;;;;;;8.23;nan;12020.31;4988459;28;20270;-70
2023/12/20 10:03:00;;;;;;;2.53;2.22;;;;;;;8.13;nan;9451.34;4994672;28;20278;-67
2023/12/20 10:05:30;;;;;;;2.15;2.03;;;;;;;8.32;nan;9777.06;4994937;28;20208;-67
2023/12/20 10:07:56;;;;;;;2.17;2.08;;;;;;;8.37;nan;10740.91;4995005;28;20185;-67
2023/12/20 10:10:23;;;;;;;2.70;2.50;;;;;;;8.49;nan;10744.41;4995097;28;20587;-67
2023/12/20 10:13:10;;;;;;;1.60;1.50;;;;;;;8.62;nan;12032.47;4995540;28;20184;-64
2023/12/20 10:15:37;;;;;;;2.63;2.17;;;;;;;8.53;nan;10745.44;4994917;28;20176;-68
2023/12/20 10:18:03;;;;;;;2.08;1.98;;;;;;;8.55;nan;9783.38;4994802;28;20180;-65
2023/12/20 10:20:30;;;;;;;2.50;2.30;;;;;;;8.46;nan;9780.91;4995106;28;20200;-67
2023/12/20 10:22:56;;;;;;;3.25;2.10;;;;;;;8.34;nan;11702.75;4994872;28;20203;-67
2023/12/20 10:25:22;;;;;;;2.88;2.28;;;;;;;8.49;nan;13312.72;4994581;28;20236;-64
2023/12/20 10:27:47;;;;;;;3.05;2.72;;;;;;;8.10;nan;12016.25;4994560;28;20618;-67
2023/12/20 10:30:14;;;;;;;3.17;2.53;;;;;;;7.94;nan;8484.94;4994048;28;20239;-65
2023/12/20 10:32:40;;;;;;;3.30;2.43;;;;;;;7.92;nan;5921.97;4994782;28;20189;-67
2023/12/20 10:35:06;;;;;;;2.50;2.30;;;;;;;7.78;nan;3999.00;4994288;28;20178;-67
2023/12/20 10:37:35;;;;;;;2.43;2.07;;;;;;;7.89;nan;1442.31;4994335;28;20158;-65
2023/12/20 10:40:04;;;;;;;2.70;2.50;;;;;;;7.60;nan;-478.53;4994232;28;20188;-66
2023/12/20 10:42:30;;;;;;;1.97;1.87;;;;;;;7.53;nan;-1117.78;4994328;28;20267;-66
2023/12/20 10:44:56;;;;;;;2.57;2.37;;;;;;;7.59;nan;-1117.31;4994537;28;20204;-64
2023/12/20 10:47:24;;;;;;;3.20;2.80;;;;;;;7.87;nan;802.63;4993827;28;20192;-64
2023/12/20 10:49:52;;;;;;;2.73;2.53;;;;;;;8.25;nan;4647.69;4992871;28;20561;-64
2023/12/20 10:52:18;;;;;;;3.27;2.20;;;;;;;8.12;nan;7527.81;4993864;28;20567;-66
2023/12/20 10:54:44;;;;;;;4.10;1.63;;;;;;;8.10;nan;8488.75;4993653;28;20184;-65
2023/12/20 10:57:10;;;;;;;3.63;2.90;;;;;;;8.47;nan;9781.19;4993573;28;20204;-68
2023/12/20 10:59:39;;;;;;;2.63;2.43;;;;;;;8.45;nan;10422.34;4993440;28;20209;-69
2023/12/20 11:02:05;;;;;;;1.90;1.80;;;;;;;8.52;nan;10424.19;4993892;28;20663;-67
2023/12/20 11:04:55;;;;;;;5.33;2.60;;;;;;;8.47;nan;10101.91;4993749;28;20200;-66
2023/12/20 11:07:32;;;;;;;2.45;1.85;;;;;;;8.23;nan;8171.47;4993628;28;20181;-67
2023/12/20 11:10:03;;;;;;;3.00;2.77;;;;;;;7.91;nan;5601.59;4993871;28;20207;-65
2023/12/20 11:12:41;;;;;;;3.13;2.07;;;;;;;8.01;nan;4323.16;4994079;28;20176;-64
2023/12/20 11:15:07;;;;;;;1.80;1.70;;;;;;;8.21;nan;5927.97;4992087;28;20220;-67
2023/12/20 11:17:32;;;;;;;2.50;2.30;;;;;;;8.21;nan;6248.41;4993379;28;20231;-66
2023/12/20 11:19:58;;;;;;;4.03;2.43;;;;;;;8.32;nan;6891.56;4992726;28;20177;-66
2023/12/20 11:22:31;;;;;;;2.60;2.30;;;;;;;8.03;nan;5283.88;4993172;28;20248;-68
2023/12/20 11:25:06;;;;;;;3.57;2.83;;;;;;;8.32;nan;5610.03;4993066;28;20331;-66
2023/12/20 11:27:32;;;;;;;2.00;1.90;;;;;;;8.30;nan;6250.34;4993146;28;20267;-67
2023/12/20 11:29:58;;;;;;;2.53;2.33;;;;;;;8.36;nan;8174.69;4992543;28;20268;-69
2023/12/20 11:32:24;;;;;;;2.72;2.53;;;;;;;8.49;nan;12991.72;4993259;28;20177;-67
2023/12/20 11:34:51;;;;;;;2.07;1.97;;;;;;;8.43;nan;14917.06;4992812;28;20192;-67
2023/12/20 11:37:19;;;;;;;2.23;2.10;;;;;;;8.63;nan;21036.59;4993272;28;20169;-66
2023/12/20 11:39:44;;;;;;;2.37;1.83;;;;;;;8.71;nan;21040.28;4993303;28;20177;-66
2023/12/20 11:42:10;;;;;;;1.73;1.50;;;;;;;8.79;nan;24266.47;4993026;28;20250;-67
2023/12/20 11:44:37;;;;;;;2.38;2.17;;;;;;;8.78;nan;30397.50;4991727;28;20211;-68